Wilson Mersin — P3PA6 — position and weather

sailwx.info

Track history (hours):
 
Tides and Currents Weather Stations Pressure Air Temp Water Temp Dewpoint Dewpoint Depression Visibility Wind Speed Wind Dir Waves Ship Positions

Wilson Mersin

Last reported at 2017-Apr-17 05:10 UTC. Time now 2017-Apr-27 22:49 UTC.
Position N 54°36' E 010°39'.
Warning: this ship's position is 10 days out of date.

Length 107 m; draft 7 m.

Type: Cargo ship. MMSI: 210072000.

Date/timePositionNaut miles runAvg speedWind from/ knotsBaromVisibWave heightAir tempDewpointWater temp
2017-Apr-17 05:10N 54°36' E 010°39'212.0
2017-Apr-17 04:59N 54°37' E 010°42'611.9
2017-Apr-17 04:28N 54°41' E 010°50'510.1
2017-Apr-17 04:00N 54°46' E 010°52'510.3
2017-Apr-17 03:30N 54°51' E 010°52'5 9.7
2017-Apr-17 03:00N 54°56' E 010°55'510.2
2017-Apr-17 02:31N 54°59' E 011°01'510.5
2017-Apr-17 02:00N 55°05' E 011°02'510.5
2017-Apr-17 01:30N 55°10' E 011°03'126 9.4
2017-Apr-16 12:05N 57°15' E 011°33'110.9
2017-Apr-16 12:00N 57°16' E 011°32'611.0
2017-Apr-16 11:30N 57°21' E 011°28'510.7
2017-Apr-16 11:00N 57°26' E 011°25'510.7
2017-Apr-16 10:30N 57°30' E 011°20'511.0
2017-Apr-16 10:00N 57°34' E 011°12'511.0
2017-Apr-16 09:30N 57°38' E 011°04'611.2
2017-Apr-16 09:00N 57°41' E 010°57'611.3
2017-Apr-16 08:30N 57°45' E 010°49'611.4
2017-Apr-16 08:00N 57°47' E 010°39'7311.4
2017-Apr-16 01:39N 57°52' E 008°23'210.2
2017-Apr-16 01:30N 57°52' E 008°20'510.0
2017-Apr-16 01:00N 57°52' E 008°11'5 9.9
2017-Apr-16 00:30N 57°52' E 008°02'5 9.8
2017-Apr-16 00:00N 57°53' E 007°52'5 9.5
2017-Apr-15 23:30N 57°53' E 007°44'5 9.2
2017-Apr-15 23:00N 57°53' E 007°35'5 8.8
2017-Apr-15 22:29N 57°54' E 007°26'4 9.3
2017-Apr-15 22:00N 57°54' E 007°18'5 9.7
2017-Apr-15 21:30N 57°55' E 007°09'5 9.4
2017-Apr-15 21:00N 57°55' E 007°00'4 8.5
2017-Apr-15 20:30N 57°57' E 006°52'4 9.2
2017-Apr-15 20:00N 57°59' E 006°45'5 9.1
2017-Apr-15 19:30N 58°01' E 006°37'5 9.4
2017-Apr-15 19:00N 58°04' E 006°31'510.1
2017-Apr-15 18:30N 58°08' E 006°25'510.4
2017-Apr-15 18:00N 58°12' E 006°19'4 8.5
2017-Apr-15 17:31N 58°16' E 006°14'4 8.3
2017-Apr-15 17:00N 58°20' E 006°15'0 0.2
2017-Apr-15 16:29N 58°20' E 006°15'0 0.0
2017-Apr-15 15:59N 58°20' E 006°15'0 0.0
2017-Apr-15 15:29N 58°20' E 006°15'0 0.0
2017-Apr-15 14:59N 58°20' E 006°15'0 0.0
2017-Apr-15 14:29N 58°20' E 006°15'0 0.0
2017-Apr-15 13:29N 58°20' E 006°15'0 0.0
2017-Apr-15 12:56N 58°20' E 006°15'0 0.0
2017-Apr-15 12:29N 58°20' E 006°15'0 0.0
2017-Apr-15 11:59N 58°20' E 006°15'0 0.0
2017-Apr-15 11:29N 58°20' E 006°15'0 0.1
2017-Apr-15 10:59N 58°20' E 006°15'0 0.0
2017-Apr-15 10:29N 58°20' E 006°15'0 0.0
2017-Apr-15 09:59N 58°20' E 006°15'0 0.0
2017-Apr-15 09:29N 58°20' E 006°15'0 0.0
2017-Apr-15 08:59N 58°20' E 006°15'0 0.0
2017-Apr-15 08:26N 58°20' E 006°15'0 0.0
2017-Apr-15 07:59N 58°20' E 006°15'0 0.0
2017-Apr-15 07:29N 58°20' E 006°15'0 0.0
2017-Apr-15 06:59N 58°20' E 006°15'0 0.0
2017-Apr-15 06:29N 58°20' E 006°15'0 0.7
2017-Apr-15 06:00N 58°19' E 006°16'3 6.0
2017-Apr-15 05:30N 58°17' E 006°13'3 5.4
2017-Apr-15 05:00N 58°14' E 006°13'4 8.6
2017-Apr-15 04:29N 58°10' E 006°12'5 9.5
2017-Apr-15 04:00N 58°05' E 006°11'613.1
2017-Apr-15 03:30N 57°59' E 006°09'712.5
2017-Apr-15 02:57N 57°52' E 006°07'22912.4
2017-Apr-14 08:28N 54°05' E 005°08'612.3
2017-Apr-14 08:00N 53°60' E 005°05'612.4
2017-Apr-14 07:30N 53°54' E 005°02'611.8
2017-Apr-14 06:59N 53°48' E 004°59'612.8
2017-Apr-14 06:29N 53°42' E 004°55'612.9
2017-Apr-14 05:59N 53°36' E 004°51'612.5
2017-Apr-14 05:29N 53°30' E 004°48'612.4
2017-Apr-14 04:59N 53°25' E 004°43'612.2
2017-Apr-14 04:29N 53°19' E 004°39'611.9
2017-Apr-14 04:00N 53°14' E 004°34'611.9
2017-Apr-14 03:30N 53°09' E 004°30'611.7
2017-Apr-14 03:00N 53°04' E 004°25'611.4
2017-Apr-14 02:30N 52°59' E 004°20'611.3
2017-Apr-14 02:00N 52°54' E 004°17'611.0
2017-Apr-14 01:30N 52°49' E 004°12'611.2
2017-Apr-14 01:00N 52°45' E 004°06'611.2
2017-Apr-14 00:30N 52°41' E 003°60'511.0
2017-Apr-14 00:00N 52°37' E 003°54'510.9
2017-Apr-13 23:30N 52°33' E 003°48'510.8
2017-Apr-13 23:00N 52°29' E 003°41'510.3
2017-Apr-13 22:30N 52°24' E 003°38'510.6
2017-Apr-13 22:00N 52°19' E 003°35'510.5
2017-Apr-13 21:29N 52°14' E 003°31'510.8
2017-Apr-13 21:00N 52°09' E 003°28'710.8
2017-Apr-13 20:21N 52°02' E 003°25'1511.6
2017-Apr-13 19:05N 51°49' E 003°17'112.4
2017-Apr-13 18:58N 51°48' E 003°15'511.2
2017-Apr-13 18:29N 51°42' E 003°17'612.2
2017-Apr-13 17:59N 51°37' E 003°22'713.7
2017-Apr-13 17:30N 51°31' E 003°26'713.6
2017-Apr-13 17:00N 51°26' E 003°34'5 7.8
2017-Apr-13 16:24N 51°28' E 003°42'0 0.0
2017-Apr-13 15:54N 51°28' E 003°42'0 0.0
2017-Apr-13 15:30N 51°28' E 003°42'0 0.0
2017-Apr-13 14:54N 51°28' E 003°42'0 0.0
2017-Apr-13 14:00N 51°28' E 003°42'0 0.0
2017-Apr-13 13:30N 51°28' E 003°42'0 0.0
2017-Apr-13 12:00N 51°28' E 003°42'0 0.0
2017-Apr-13 11:24N 51°28' E 003°42'0 0.0
2017-Apr-13 10:06N 51°28' E 003°42'0 0.1
2017-Apr-13 10:00N 51°28' E 003°42'0 0.0
2017-Apr-13 09:30N 51°28' E 003°42'0 0.0
2017-Apr-13 09:00N 51°28' E 003°42'0 0.0
2017-Apr-13 08:18N 51°28' E 003°42'0 0.0
2017-Apr-13 07:06N 51°28' E 003°42'0 0.0
2017-Apr-13 07:00N 51°28' E 003°42'0 0.0
2017-Apr-13 06:24N 51°28' E 003°42'0 0.0
2017-Apr-13 05:54N 51°28' E 003°42'0 0.0
2017-Apr-13 05:30N 51°28' E 003°42'0 0.0
2017-Apr-13 05:00N 51°28' E 003°42'0 0.0
2017-Apr-13 04:24N 51°28' E 003°42'0 0.0
2017-Apr-13 03:54N 51°28' E 003°42'0 0.0
2017-Apr-13 03:00N 51°28' E 003°42'0 0.0
2017-Apr-13 02:24N 51°28' E 003°42'0 0.0
2017-Apr-13 01:54N 51°28' E 003°42'0 0.0
2017-Apr-13 01:24N 51°28' E 003°42'0 0.0
2017-Apr-13 00:54N 51°28' E 003°42'0 0.0
2017-Apr-13 00:30N 51°28' E 003°42'0 0.0
2017-Apr-13 00:00N 51°28' E 003°42'0 0.0
2017-Apr-12 23:30N 51°28' E 003°42'0 0.0
2017-Apr-12 23:00N 51°28' E 003°42'0 0.0
2017-Apr-12 22:30N 51°28' E 003°42'0 0.0
2017-Apr-12 21:42N 51°28' E 003°42'0 0.0
2017-Apr-12 21:30N 51°28' E 003°42'0 0.0
2017-Apr-12 21:00N 51°28' E 003°42'0 0.0
2017-Apr-12 20:30N 51°28' E 003°42'0 0.0
2017-Apr-12 20:00N 51°28' E 003°42'0 0.0
2017-Apr-12 19:30N 51°28' E 003°42'0 0.0
2017-Apr-12 18:54N 51°28' E 003°42'0 0.0
2017-Apr-12 18:06N 51°28' E 003°42'0 0.0
2017-Apr-12 18:00N 51°28' E 003°42'0 0.0
2017-Apr-12 17:17N 51°28' E 003°42'1 1.9
2017-Apr-12 17:00N 51°27' E 003°41'4 8.4
2017-Apr-12 16:31N 51°26' E 003°35'5 9.2
2017-Apr-12 16:00N 51°29' E 003°29'4 8.8
2017-Apr-12 15:30N 51°33' E 003°25'1110.3
2017-Apr-12 14:24N 51°43' E 003°16'7811.1
2017-Apr-12 07:23N 52°45' E 002°00'513.9
2017-Apr-12 07:00N 52°48' E 001°53'713.4
2017-Apr-12 06:30N 52°52' E 001°45'713.2
2017-Apr-12 06:00N 52°57' E 001°37'612.7
2017-Apr-12 05:30N 53°01' E 001°29'612.1
2017-Apr-12 05:00N 53°05' E 001°22'611.7
2017-Apr-12 04:30N 53°10' E 001°16'5811.2
2017-Apr-11 23:18N 53°38' W 000°10'1 0.1
2017-Apr-11 14:05N 53°38' W 000°12'0 0.0
2017-Apr-11 13:11N 53°38' W 000°12'0 0.0
2017-Apr-11 12:59N 53°38' W 000°12'0 0.0
2017-Apr-11 12:26N 53°38' W 000°12'0 0.0
2017-Apr-11 11:56N 53°38' W 000°12'0 0.0
2017-Apr-11 11:26N 53°38' W 000°12'0 0.0
2017-Apr-11 10:11N 53°38' W 000°12'0 0.0
2017-Apr-11 08:20N 53°38' W 000°12'0 0.0
2017-Apr-10 13:53N 53°38' W 000°12'0 0.0
2017-Apr-10 13:23N 53°38' W 000°12'0 0.0
2017-Apr-10 03:47N 53°38' W 000°12'0 0.0
2017-Apr-09 12:03N 53°38' W 000°12'0 0.7
2017-Apr-09 11:57N 53°38' W 000°12'0 0.6
2017-Apr-09 11:30N 53°38' W 000°11'1 1.2
2017-Apr-09 11:00N 53°38' W 000°10'4 6.6
2017-Apr-09 10:28N 53°37' W 000°05'25 5.9
2017-Apr-09 06:10N 53°51' E 000°31'1 7.1
2017-Apr-09 06:00N 53°52' E 000°31'4 7.2
2017-Apr-09 05:30N 53°56' E 000°33'3 7.0
2017-Apr-09 05:00N 53°59' E 000°35'4 7.2
2017-Apr-09 04:30N 54°03' E 000°37'4 8.2
2017-Apr-09 04:00N 54°06' E 000°39'712.8
2017-Apr-09 03:26N 54°14' E 000°43'512.8
2017-Apr-09 03:00N 54°19' E 000°46'612.7
2017-Apr-09 02:30N 54°25' E 000°49'612.6
2017-Apr-09 02:00N 54°31' E 000°52'612.3
2017-Apr-09 01:30N 54°37' E 000°56'612.2
2017-Apr-09 01:00N 54°42' E 000°59'33912.1
2017-Apr-07 20:58N 60°01' E 004°32'510.9
2017-Apr-07 20:30N 60°05' E 004°40'611.5
2017-Apr-07 19:59N 60°07' E 004°51'611.7
2017-Apr-07 19:30N 60°09' E 005°02'510.8
2017-Apr-07 19:00N 60°10' E 005°12'611.3
2017-Apr-07 18:30N 60°06' E 005°18'611.8
2017-Apr-07 18:00N 59°60' E 005°21'612.3
2017-Apr-07 17:30N 59°55' E 005°30'612.3
2017-Apr-07 17:00N 59°50' E 005°34'5 9.1
2017-Apr-07 16:30N 59°52' E 005°41'612.0
2017-Apr-07 16:00N 59°57' E 005°48'612.0
2017-Apr-07 15:30N 60°02' E 005°56'611.7
2017-Apr-07 15:00N 60°06' E 006°03'1111.2
2017-Apr-07 14:00N 60°17' E 006°12'611.6
2017-Apr-07 13:30N 60°21' E 006°19'611.7
2017-Apr-07 12:59N 60°25' E 006°29'510.1
2017-Apr-07 12:30N 60°25' E 006°39'510.5
2017-Apr-07 12:00N 60°20' E 006°39'611.4
2017-Apr-07 11:30N 60°15' E 006°36'611.6
2017-Apr-07 11:00N 60°09' E 006°34'2 3.6
2017-Apr-07 10:29N 60°07' E 006°33'0 0.0
2017-Apr-07 09:59N 60°07' E 006°33'0 0.0
2017-Apr-07 09:29N 60°07' E 006°33'0 0.0
2017-Apr-07 08:59N 60°07' E 006°33'0 0.0
2017-Apr-07 08:29N 60°07' E 006°33'0 0.0
2017-Apr-07 07:59N 60°07' E 006°33'0 0.0
2017-Apr-07 07:29N 60°07' E 006°33'0 0.0
2017-Apr-07 06:59N 60°07' E 006°33'0 0.0
2017-Apr-07 06:29N 60°07' E 006°33'0 0.0
2017-Apr-07 05:59N 60°07' E 006°33'0 0.0
2017-Apr-07 05:29N 60°07' E 006°33'  
Track history (hours):
 
Tides and Currents Weather Stations Pressure Air Temp Water Temp Dewpoint Dewpoint Depression Visibility Wind Speed Wind Dir Waves Ship Positions

Wilson Mersin

Last reported at 2017-Apr-17 05:10 UTC. Time now 2017-Apr-27 22:50 UTC.
Position N 54°36' E 010°39'.
Warning: this ship's position is 10 days out of date.

Length 107 m; draft 7 m.

Type: Cargo ship. MMSI: 210072000.

Date/timePositionNaut miles runAvg speedWind from/ knotsBaromVisibWave heightAir tempDewpointWater temp
2017-Apr-17 05:10N 54°36' E 010°39'212.0
2017-Apr-17 04:59N 54°37' E 010°42'611.9
2017-Apr-17 04:28N 54°41' E 010°50'510.1
2017-Apr-17 04:00N 54°46' E 010°52'510.3
2017-Apr-17 03:30N 54°51' E 010°52'5 9.7
2017-Apr-17 03:00N 54°56' E 010°55'510.2
2017-Apr-17 02:31N 54°59' E 011°01'510.5
2017-Apr-17 02:00N 55°05' E 011°02'510.5
2017-Apr-17 01:30N 55°10' E 011°03'126 9.4
2017-Apr-16 12:05N 57°15' E 011°33'110.9
2017-Apr-16 12:00N 57°16' E 011°32'611.0
2017-Apr-16 11:30N 57°21' E 011°28'510.7
2017-Apr-16 11:00N 57°26' E 011°25'510.7
2017-Apr-16 10:30N 57°30' E 011°20'511.0
2017-Apr-16 10:00N 57°34' E 011°12'511.0
2017-Apr-16 09:30N 57°38' E 011°04'611.2
2017-Apr-16 09:00N 57°41' E 010°57'611.3
2017-Apr-16 08:30N 57°45' E 010°49'611.4
2017-Apr-16 08:00N 57°47' E 010°39'7311.4
2017-Apr-16 01:39N 57°52' E 008°23'210.2
2017-Apr-16 01:30N 57°52' E 008°20'510.0
2017-Apr-16 01:00N 57°52' E 008°11'5 9.9
2017-Apr-16 00:30N 57°52' E 008°02'5 9.8
2017-Apr-16 00:00N 57°53' E 007°52'5 9.5
2017-Apr-15 23:30N 57°53' E 007°44'5 9.2
2017-Apr-15 23:00N 57°53' E 007°35'5 8.8
2017-Apr-15 22:29N 57°54' E 007°26'4 9.3
2017-Apr-15 22:00N 57°54' E 007°18'5 9.7
2017-Apr-15 21:30N 57°55' E 007°09'5 9.4
2017-Apr-15 21:00N 57°55' E 007°00'4 8.5
2017-Apr-15 20:30N 57°57' E 006°52'4 9.2
2017-Apr-15 20:00N 57°59' E 006°45'5 9.1
2017-Apr-15 19:30N 58°01' E 006°37'5 9.4
2017-Apr-15 19:00N 58°04' E 006°31'510.1
2017-Apr-15 18:30N 58°08' E 006°25'510.4
2017-Apr-15 18:00N 58°12' E 006°19'4 8.5
2017-Apr-15 17:31N 58°16' E 006°14'4 8.3
2017-Apr-15 17:00N 58°20' E 006°15'0 0.2
2017-Apr-15 16:29N 58°20' E 006°15'0 0.0
2017-Apr-15 15:59N 58°20' E 006°15'0 0.0
2017-Apr-15 15:29N 58°20' E 006°15'0 0.0
2017-Apr-15 14:59N 58°20' E 006°15'0 0.0
2017-Apr-15 14:29N 58°20' E 006°15'0 0.0
2017-Apr-15 13:29N 58°20' E 006°15'0 0.0
2017-Apr-15 12:56N 58°20' E 006°15'0 0.0
2017-Apr-15 12:29N 58°20' E 006°15'0 0.0
2017-Apr-15 11:59N 58°20' E 006°15'0 0.0
2017-Apr-15 11:29N 58°20' E 006°15'0 0.1
2017-Apr-15 10:59N 58°20' E 006°15'0 0.0
2017-Apr-15 10:29N 58°20' E 006°15'0 0.0
2017-Apr-15 09:59N 58°20' E 006°15'0 0.0
2017-Apr-15 09:29N 58°20' E 006°15'0 0.0
2017-Apr-15 08:59N 58°20' E 006°15'0 0.0
2017-Apr-15 08:26N 58°20' E 006°15'0 0.0
2017-Apr-15 07:59N 58°20' E 006°15'0 0.0
2017-Apr-15 07:29N 58°20' E 006°15'0 0.0
2017-Apr-15 06:59N 58°20' E 006°15'0 0.0
2017-Apr-15 06:29N 58°20' E 006°15'0 0.7
2017-Apr-15 06:00N 58°19' E 006°16'3 6.0
2017-Apr-15 05:30N 58°17' E 006°13'3 5.4
2017-Apr-15 05:00N 58°14' E 006°13'4 8.6
2017-Apr-15 04:29N 58°10' E 006°12'5 9.5
2017-Apr-15 04:00N 58°05' E 006°11'613.1
2017-Apr-15 03:30N 57°59' E 006°09'712.5
2017-Apr-15 02:57N 57°52' E 006°07'22912.4
2017-Apr-14 08:28N 54°05' E 005°08'612.3
2017-Apr-14 08:00N 53°60' E 005°05'612.4
2017-Apr-14 07:30N 53°54' E 005°02'611.8
2017-Apr-14 06:59N 53°48' E 004°59'612.8
2017-Apr-14 06:29N 53°42' E 004°55'612.9
2017-Apr-14 05:59N 53°36' E 004°51'612.5
2017-Apr-14 05:29N 53°30' E 004°48'612.4
2017-Apr-14 04:59N 53°25' E 004°43'612.2
2017-Apr-14 04:29N 53°19' E 004°39'611.9
2017-Apr-14 04:00N 53°14' E 004°34'611.9
2017-Apr-14 03:30N 53°09' E 004°30'611.7
2017-Apr-14 03:00N 53°04' E 004°25'611.4
2017-Apr-14 02:30N 52°59' E 004°20'611.3
2017-Apr-14 02:00N 52°54' E 004°17'611.0
2017-Apr-14 01:30N 52°49' E 004°12'611.2
2017-Apr-14 01:00N 52°45' E 004°06'611.2
2017-Apr-14 00:30N 52°41' E 003°60'511.0
2017-Apr-14 00:00N 52°37' E 003°54'510.9
2017-Apr-13 23:30N 52°33' E 003°48'510.8
2017-Apr-13 23:00N 52°29' E 003°41'510.3
2017-Apr-13 22:30N 52°24' E 003°38'510.6
2017-Apr-13 22:00N 52°19' E 003°35'510.5
2017-Apr-13 21:29N 52°14' E 003°31'510.8
2017-Apr-13 21:00N 52°09' E 003°28'710.8
2017-Apr-13 20:21N 52°02' E 003°25'1511.6
2017-Apr-13 19:05N 51°49' E 003°17'112.4
2017-Apr-13 18:58N 51°48' E 003°15'511.2
2017-Apr-13 18:29N 51°42' E 003°17'612.2
2017-Apr-13 17:59N 51°37' E 003°22'713.7
2017-Apr-13 17:30N 51°31' E 003°26'713.6
2017-Apr-13 17:00N 51°26' E 003°34'5 7.8
2017-Apr-13 16:24N 51°28' E 003°42'0 0.0
2017-Apr-13 15:54N 51°28' E 003°42'0 0.0
2017-Apr-13 15:30N 51°28' E 003°42'0 0.0
2017-Apr-13 14:54N 51°28' E 003°42'0 0.0
2017-Apr-13 14:00N 51°28' E 003°42'0 0.0
2017-Apr-13 13:30N 51°28' E 003°42'0 0.0
2017-Apr-13 12:00N 51°28' E 003°42'0 0.0
2017-Apr-13 11:24N 51°28' E 003°42'0 0.0
2017-Apr-13 10:06N 51°28' E 003°42'0 0.1
2017-Apr-13 10:00N 51°28' E 003°42'0 0.0
2017-Apr-13 09:30N 51°28' E 003°42'0 0.0
2017-Apr-13 09:00N 51°28' E 003°42'0 0.0
2017-Apr-13 08:18N 51°28' E 003°42'0 0.0
2017-Apr-13 07:06N 51°28' E 003°42'0 0.0
2017-Apr-13 07:00N 51°28' E 003°42'0 0.0
2017-Apr-13 06:24N 51°28' E 003°42'0 0.0
2017-Apr-13 05:54N 51°28' E 003°42'0 0.0
2017-Apr-13 05:30N 51°28' E 003°42'0 0.0
2017-Apr-13 05:00N 51°28' E 003°42'0 0.0
2017-Apr-13 04:24N 51°28' E 003°42'0 0.0
2017-Apr-13 03:54N 51°28' E 003°42'0 0.0
2017-Apr-13 03:00N 51°28' E 003°42'0 0.0
2017-Apr-13 02:24N 51°28' E 003°42'0 0.0
2017-Apr-13 01:54N 51°28' E 003°42'0 0.0
2017-Apr-13 01:24N 51°28' E 003°42'0 0.0
2017-Apr-13 00:54N 51°28' E 003°42'0 0.0
2017-Apr-13 00:30N 51°28' E 003°42'0 0.0
2017-Apr-13 00:00N 51°28' E 003°42'0 0.0
2017-Apr-12 23:30N 51°28' E 003°42'0 0.0
2017-Apr-12 23:00N 51°28' E 003°42'0 0.0
2017-Apr-12 22:30N 51°28' E 003°42'0 0.0
2017-Apr-12 21:42N 51°28' E 003°42'0 0.0
2017-Apr-12 21:30N 51°28' E 003°42'0 0.0
2017-Apr-12 21:00N 51°28' E 003°42'0 0.0
2017-Apr-12 20:30N 51°28' E 003°42'0 0.0
2017-Apr-12 20:00N 51°28' E 003°42'0 0.0
2017-Apr-12 19:30N 51°28' E 003°42'0 0.0
2017-Apr-12 18:54N 51°28' E 003°42'0 0.0
2017-Apr-12 18:06N 51°28' E 003°42'0 0.0
2017-Apr-12 18:00N 51°28' E 003°42'0 0.0
2017-Apr-12 17:17N 51°28' E 003°42'1 1.9
2017-Apr-12 17:00N 51°27' E 003°41'4 8.4
2017-Apr-12 16:31N 51°26' E 003°35'5 9.2
2017-Apr-12 16:00N 51°29' E 003°29'4 8.8
2017-Apr-12 15:30N 51°33' E 003°25'1110.3
2017-Apr-12 14:24N 51°43' E 003°16'7811.1
2017-Apr-12 07:23N 52°45' E 002°00'513.9
2017-Apr-12 07:00N 52°48' E 001°53'713.4
2017-Apr-12 06:30N 52°52' E 001°45'713.2
2017-Apr-12 06:00N 52°57' E 001°37'612.7
2017-Apr-12 05:30N 53°01' E 001°29'612.1
2017-Apr-12 05:00N 53°05' E 001°22'611.7
2017-Apr-12 04:30N 53°10' E 001°16'5811.2
2017-Apr-11 23:18N 53°38' W 000°10'1 0.1
2017-Apr-11 14:05N 53°38' W 000°12'0 0.0
2017-Apr-11 13:11N 53°38' W 000°12'0 0.0
2017-Apr-11 12:59N 53°38' W 000°12'0 0.0
2017-Apr-11 12:26N 53°38' W 000°12'0 0.0
2017-Apr-11 11:56N 53°38' W 000°12'0 0.0
2017-Apr-11 11:26N 53°38' W 000°12'0 0.0
2017-Apr-11 10:11N 53°38' W 000°12'0 0.0
2017-Apr-11 08:20N 53°38' W 000°12'0 0.0
2017-Apr-10 13:53N 53°38' W 000°12'0 0.0
2017-Apr-10 13:23N 53°38' W 000°12'0 0.0
2017-Apr-10 03:47N 53°38' W 000°12'0 0.0
2017-Apr-09 12:03N 53°38' W 000°12'0 0.7
2017-Apr-09 11:57N 53°38' W 000°12'0 0.6
2017-Apr-09 11:30N 53°38' W 000°11'1 1.2
2017-Apr-09 11:00N 53°38' W 000°10'4 6.6
2017-Apr-09 10:28N 53°37' W 000°05'25 5.9
2017-Apr-09 06:10N 53°51' E 000°31'1 7.1
2017-Apr-09 06:00N 53°52' E 000°31'4 7.2
2017-Apr-09 05:30N 53°56' E 000°33'3 7.0
2017-Apr-09 05:00N 53°59' E 000°35'4 7.2
2017-Apr-09 04:30N 54°03' E 000°37'4 8.2
2017-Apr-09 04:00N 54°06' E 000°39'712.8
2017-Apr-09 03:26N 54°14' E 000°43'512.8
2017-Apr-09 03:00N 54°19' E 000°46'612.7
2017-Apr-09 02:30N 54°25' E 000°49'612.6
2017-Apr-09 02:00N 54°31' E 000°52'612.3
2017-Apr-09 01:30N 54°37' E 000°56'612.2
2017-Apr-09 01:00N 54°42' E 000°59'33912.1
2017-Apr-07 20:58N 60°01' E 004°32'510.9
2017-Apr-07 20:30N 60°05' E 004°40'611.5
2017-Apr-07 19:59N 60°07' E 004°51'611.7
2017-Apr-07 19:30N 60°09' E 005°02'510.8
2017-Apr-07 19:00N 60°10' E 005°12'611.3
2017-Apr-07 18:30N 60°06' E 005°18'611.8
2017-Apr-07 18:00N 59°60' E 005°21'612.3
2017-Apr-07 17:30N 59°55' E 005°30'612.3
2017-Apr-07 17:00N 59°50' E 005°34'5 9.1
2017-Apr-07 16:30N 59°52' E 005°41'612.0
2017-Apr-07 16:00N 59°57' E 005°48'612.0
2017-Apr-07 15:30N 60°02' E 005°56'611.7
2017-Apr-07 15:00N 60°06' E 006°03'1111.2
2017-Apr-07 14:00N 60°17' E 006°12'611.6
2017-Apr-07 13:30N 60°21' E 006°19'611.7
2017-Apr-07 12:59N 60°25' E 006°29'510.1
2017-Apr-07 12:30N 60°25' E 006°39'510.5
2017-Apr-07 12:00N 60°20' E 006°39'611.4
2017-Apr-07 11:30N 60°15' E 006°36'611.6
2017-Apr-07 11:00N 60°09' E 006°34'2 3.6
2017-Apr-07 10:29N 60°07' E 006°33'0 0.0
2017-Apr-07 09:59N 60°07' E 006°33'0 0.0
2017-Apr-07 09:29N 60°07' E 006°33'0 0.0
2017-Apr-07 08:59N 60°07' E 006°33'0 0.0
2017-Apr-07 08:29N 60°07' E 006°33'0 0.0
2017-Apr-07 07:59N 60°07' E 006°33'0 0.0
2017-Apr-07 07:29N 60°07' E 006°33'0 0.0
2017-Apr-07 06:59N 60°07' E 006°33'0 0.0
2017-Apr-07 06:29N 60°07' E 006°33'0 0.0
2017-Apr-07 05:59N 60°07' E 006°33'0 0.0
2017-Apr-07 05:29N 60°07' E 006°33'  

Dump ship's entire track history